createdAt,value
2022-08-17T00:02:25.283Z,19.10
2022-08-17T00:04:54.937Z,18.40
2022-08-17T00:07:22.183Z,18.77
2022-08-17T00:09:49.029Z,13.90
2022-08-17T00:12:40.631Z,18.27
2022-08-17T00:15:05.071Z,15.03
2022-08-17T00:17:31.924Z,23.80
2022-08-17T00:19:59.974Z,20.57
2022-08-17T00:22:33.253Z,16.37
2022-08-17T00:25:10.490Z,19.47
2022-08-17T00:27:37.328Z,18.37
2022-08-17T00:30:09.604Z,19.07
2022-08-17T00:33:14.307Z,19.57
2022-08-17T00:35:34.715Z,22.30
2022-08-17T00:38:01.686Z,19.50
2022-08-17T00:40:44.237Z,19.40
2022-08-17T00:43:22.737Z,22.57
2022-08-17T00:45:50.035Z,29.13
2022-08-17T00:48:26.177Z,22.17
2022-08-17T00:51:09.126Z,19.17
2022-08-17T00:53:40.613Z,16.53
2022-08-17T00:56:10.752Z,19.73
2022-08-17T00:58:38.663Z,18.43
2022-08-17T01:01:08.005Z,19.83
2022-08-17T01:03:37.451Z,17.30
2022-08-17T01:06:06.239Z,21.03
2022-08-17T01:08:33.559Z,19.33
2022-08-17T01:11:02.330Z,17.97
2022-08-17T01:13:40.714Z,19.43
2022-08-17T01:16:19.636Z,19.67
2022-08-17T01:18:50.507Z,22.87
2022-08-17T01:21:29.046Z,19.67
2022-08-17T01:23:56.457Z,17.17
2022-08-17T01:26:23.785Z,16.93
2022-08-17T01:28:54.348Z,15.03
2022-08-17T01:31:24.606Z,16.10
2022-08-17T01:33:51.526Z,25.47
2022-08-17T01:36:18.459Z,17.67
2022-08-17T01:38:45.274Z,20.23
2022-08-17T01:41:15.848Z,18.43
2022-08-17T01:44:00.408Z,29.00
2022-08-17T01:46:31.375Z,18.43
2022-08-17T01:48:59.434Z,14.47
2022-08-17T01:51:30.808Z,15.73
2022-08-17T01:54:00.598Z,19.33
2022-08-17T01:56:30.020Z,15.33
2022-08-17T01:58:57.345Z,23.57
2022-08-17T02:01:27.226Z,22.77
2022-08-17T02:04:00.935Z,22.50
2022-08-17T02:06:44.968Z,21.13
2022-08-17T02:09:16.835Z,18.50
2022-08-17T02:11:44.580Z,15.60
2022-08-17T02:14:13.560Z,19.00
2022-08-17T02:16:41.712Z,29.67
2022-08-17T02:19:13.007Z,16.40
2022-08-17T02:21:41.866Z,16.17
2022-08-17T02:24:13.314Z,16.93
2022-08-17T02:26:40.217Z,21.80
2022-08-17T02:29:07.530Z,19.87
2022-08-17T02:31:35.615Z,22.13
2022-08-17T02:34:05.012Z,15.53
2022-08-17T02:36:34.088Z,18.57
2022-08-17T02:39:06.675Z,16.30
2022-08-17T02:41:33.689Z,19.83
2022-08-17T02:44:01.188Z,18.67
2022-08-17T02:46:28.455Z,21.47
2022-08-17T02:48:55.589Z,23.60
2022-08-17T02:51:22.647Z,19.93
2022-08-17T02:53:49.505Z,16.33
2022-08-17T02:56:16.356Z,16.40
2022-08-17T02:58:43.321Z,17.27
2022-08-17T03:01:10.805Z,14.43
2022-08-17T03:03:40.728Z,16.30
2022-08-17T03:06:08.329Z,27.70
2022-08-17T03:08:36.428Z,17.80
2022-08-17T03:11:03.795Z,20.10
2022-08-17T03:13:30.950Z,20.23
2022-08-17T03:15:57.988Z,19.80
2022-08-17T03:18:26.314Z,16.07
2022-08-17T03:20:59.365Z,20.57
2022-08-17T03:23:27.956Z,20.93
2022-08-17T03:25:56.885Z,19.30
2022-08-17T03:28:24.573Z,17.37
2022-08-17T03:30:52.636Z,14.37
2022-08-17T03:33:20.003Z,22.97
2022-08-17T03:35:47.708Z,17.30
2022-08-17T03:38:17.109Z,25.27
2022-08-17T03:40:58.640Z,17.77
2022-08-17T03:43:29.747Z,17.53
2022-08-17T03:46:27.644Z,15.97
2022-08-17T03:49:19.799Z,22.97
2022-08-17T03:52:05.525Z,19.17
2022-08-17T03:54:50.801Z,21.37
2022-08-17T03:57:19.248Z,19.77
2022-08-17T03:59:46.287Z,21.37
2022-08-17T04:02:19.842Z,17.70
2022-08-17T04:04:50.795Z,22.40
2022-08-17T04:07:19.418Z,16.73
2022-08-17T04:09:46.511Z,21.03
2022-08-17T04:12:16.154Z,21.40
2022-08-17T04:14:52.776Z,20.27
2022-08-17T04:17:24.252Z,21.43
2022-08-17T04:19:51.857Z,16.73
2022-08-17T04:22:31.906Z,34.43
2022-08-17T04:25:17.206Z,23.33
2022-08-17T04:27:44.104Z,23.63
2022-08-17T04:30:11.528Z,17.83
2022-08-17T04:33:15.640Z,15.27
2022-08-17T04:35:51.410Z,16.60
2022-08-17T04:38:21.406Z,19.60
2022-08-17T04:41:07.764Z,17.60
2022-08-17T04:43:35.997Z,18.30
2022-08-17T04:46:08.919Z,17.77
2022-08-17T04:48:39.761Z,20.83
2022-08-17T04:51:15.691Z,22.77
2022-08-17T04:53:49.061Z,17.63
2022-08-17T04:56:22.799Z,17.60
2022-08-17T04:58:51.709Z,16.50
2022-08-17T05:01:23.675Z,17.57
2022-08-17T05:03:52.451Z,35.13
2022-08-17T05:06:19.713Z,17.93
2022-08-17T05:08:46.559Z,14.10
2022-08-17T05:11:13.623Z,18.93
2022-08-17T05:13:53.535Z,23.70
2022-08-17T05:16:22.847Z,19.80
2022-08-17T05:18:50.299Z,19.10
2022-08-17T05:21:17.717Z,16.73
2022-08-17T05:23:47.159Z,15.17
2022-08-17T05:26:26.387Z,19.50
2022-08-17T05:29:00.395Z,13.07
2022-08-17T05:31:30.600Z,13.70
2022-08-17T05:33:57.829Z,14.87
2022-08-17T05:36:41.861Z,16.07
2022-08-17T05:39:10.745Z,14.33
2022-08-17T05:41:43.905Z,15.97
2022-08-17T05:44:11.042Z,17.80
2022-08-17T05:46:41.783Z,15.43
2022-08-17T05:49:09.611Z,13.53
2022-08-17T05:51:57.807Z,17.07
2022-08-17T05:55:01.488Z,11.17
2022-08-17T05:57:49.696Z,16.33
2022-08-17T06:00:42.175Z,21.90
2022-08-17T06:03:47.346Z,22.63
2022-08-17T06:06:35.162Z,14.20
2022-08-17T06:09:04.774Z,17.00
2022-08-17T06:11:43.626Z,16.80
2022-08-17T06:14:22.371Z,12.10
2022-08-17T06:16:55.579Z,15.73
2022-08-17T06:19:39.492Z,14.90
2022-08-17T06:22:08.626Z,13.10
2022-08-17T06:24:42.171Z,15.20
2022-08-17T06:27:17.991Z,14.50
2022-08-17T06:29:56.821Z,10.77
2022-08-17T06:32:25.100Z,15.20
2022-08-17T06:34:53.186Z,11.27
2022-08-17T06:37:43.899Z,11.87
2022-08-17T06:40:38.076Z,11.10
2022-08-17T06:43:19.870Z,10.40
2022-08-17T06:46:07.729Z,16.47
2022-08-17T06:48:39.718Z,23.80
2022-08-17T06:51:34.981Z,16.40
2022-08-17T06:54:19.480Z,12.00
2022-08-17T06:56:59.579Z,12.63
2022-08-17T06:59:54.281Z,10.53
2022-08-17T07:02:51.165Z,9.40
2022-08-17T07:05:41.645Z,16.53
2022-08-17T07:08:12.690Z,11.87
2022-08-17T07:10:48.312Z,10.90
2022-08-17T07:13:49.300Z,11.53
2022-08-17T07:16:33.282Z,15.67
2022-08-17T07:19:00.505Z,14.10
2022-08-17T07:21:48.913Z,12.53
2022-08-17T07:24:29.583Z,12.63
2022-08-17T07:27:23.261Z,11.40
2022-08-17T07:30:09.544Z,12.70
2022-08-17T07:32:45.301Z,12.53
2022-08-17T07:35:21.213Z,9.40
2022-08-17T07:37:55.614Z,11.70
2022-08-17T07:41:03.100Z,10.63
2022-08-17T07:43:41.823Z,14.60
2022-08-17T07:46:30.053Z,8.40
2022-08-17T07:49:18.692Z,13.30
2022-08-17T07:51:48.267Z,14.57
2022-08-17T07:54:23.593Z,11.37
2022-08-17T07:57:00.382Z,10.43
2022-08-17T07:59:40.712Z,11.80
2022-08-17T08:02:40.336Z,10.70
2022-08-17T08:05:30.713Z,11.90
2022-08-17T08:08:21.684Z,9.33
2022-08-17T08:11:03.751Z,9.97
2022-08-17T08:13:32.335Z,22.83
2022-08-17T08:16:19.838Z,8.80
2022-08-17T08:18:55.704Z,14.93
2022-08-17T08:21:48.729Z,12.10
2022-08-17T08:24:52.113Z,8.37
2022-08-17T08:27:30.821Z,12.40
2022-08-17T08:30:04.949Z,14.63
2022-08-17T08:32:58.433Z,10.30
2022-08-17T08:35:30.984Z,10.37
2022-08-17T08:38:23.741Z,13.90
2022-08-17T08:41:20.433Z,7.33
2022-08-17T08:44:08.508Z,8.50
2022-08-17T08:47:04.431Z,15.10
2022-08-17T08:50:04.095Z,11.00
2022-08-17T08:53:18.975Z,9.10
2022-08-17T08:55:52.308Z,8.40
2022-08-17T08:58:52.456Z,11.00
2022-08-17T09:01:39.374Z,9.87
2022-08-17T09:04:24.766Z,12.43
2022-08-17T09:07:17.287Z,11.57
2022-08-17T09:10:32.153Z,10.73
2022-08-17T09:13:15.733Z,10.70
2022-08-17T09:15:48.013Z,14.77
2022-08-17T09:19:01.293Z,16.60
2022-08-17T09:21:48.759Z,14.50
2022-08-17T09:25:03.411Z,11.47
2022-08-17T09:27:53.722Z,9.60
2022-08-17T09:30:20.748Z,22.97
2022-08-17T09:32:56.445Z,23.23
2022-08-17T09:35:36.452Z,11.37
2022-08-17T09:41:23.893Z,8.27
2022-08-17T09:44:22.746Z,10.67
2022-08-17T09:47:14.934Z,10.77
2022-08-17T09:49:52.223Z,12.83
2022-08-17T09:52:23.272Z,6.50
2022-08-17T09:54:52.398Z,15.70
2022-08-17T09:57:38.024Z,9.83
2022-08-17T10:00:10.600Z,12.93
2022-08-17T10:03:09.957Z,9.03
2022-08-17T10:05:37.726Z,9.90
2022-08-17T10:08:35.130Z,15.73
2022-08-17T10:11:10.907Z,9.97
2022-08-17T10:13:53.769Z,10.40
2022-08-17T10:16:43.910Z,9.37
2022-08-17T10:19:36.092Z,7.10
2022-08-17T10:22:38.145Z,12.17
2022-08-17T10:25:42.532Z,9.90
2022-08-17T10:28:21.487Z,12.87
2022-08-17T10:31:16.578Z,11.70
2022-08-17T10:34:23.620Z,10.77
2022-08-17T10:37:02.597Z,9.43
2022-08-17T10:39:57.395Z,8.30
2022-08-17T10:42:43.706Z,9.10
2022-08-17T10:45:29.529Z,10.83
2022-08-17T10:48:05.695Z,9.00
2022-08-17T10:50:53.666Z,8.10
2022-08-17T10:53:43.609Z,20.40
2022-08-17T10:56:13.411Z,9.67
2022-08-17T10:58:59.909Z,10.23
2022-08-17T11:01:32.262Z,9.17
2022-08-17T11:04:11.253Z,16.10
2022-08-17T11:06:38.022Z,13.50
2022-08-17T11:09:56.283Z,7.97
2022-08-17T11:12:42.362Z,8.30
2022-08-17T11:15:36.330Z,7.97
2022-08-17T11:18:12.490Z,9.67
2022-08-17T11:20:52.024Z,7.40
2022-08-17T11:23:48.526Z,10.93
2022-08-17T11:26:29.713Z,7.30
2022-08-17T11:29:02.200Z,13.53
2022-08-17T11:31:44.687Z,9.17
2022-08-17T11:34:21.436Z,10.43
2022-08-17T11:37:02.130Z,12.77
2022-08-17T11:40:10.645Z,13.87
2022-08-17T11:42:49.104Z,8.57
2022-08-17T11:45:50.941Z,13.93
2022-08-17T11:48:55.375Z,13.50
2022-08-17T11:51:33.826Z,9.07
2022-08-17T11:54:34.733Z,8.00
2022-08-17T11:57:29.524Z,11.33
2022-08-17T12:00:11.348Z,6.90
2022-08-17T12:02:48.145Z,10.03
2022-08-17T12:05:16.961Z,7.60
2022-08-17T12:08:04.682Z,11.07
2022-08-17T12:10:35.518Z,8.53
2022-08-17T12:13:21.653Z,7.30
2022-08-17T12:15:52.801Z,7.23
2022-08-17T12:18:31.600Z,19.43
2022-08-17T12:21:13.451Z,7.07
2022-08-17T12:23:55.054Z,10.40
2022-08-17T12:26:30.446Z,7.20
2022-08-17T12:29:04.140Z,6.27
2022-08-17T12:31:36.847Z,8.67
2022-08-17T12:34:05.558Z,9.10
2022-08-17T12:36:33.660Z,7.33
2022-08-17T12:39:13.848Z,19.23
2022-08-17T12:41:45.045Z,12.33
2022-08-17T12:44:12.280Z,6.50
2022-08-17T12:47:04.709Z,12.30
2022-08-17T12:49:34.307Z,10.30
2022-08-17T12:52:15.143Z,9.77
2022-08-17T12:54:42.108Z,8.50
2022-08-17T12:57:29.272Z,8.83
2022-08-17T13:00:02.857Z,7.43
2022-08-17T13:02:39.812Z,7.10
2022-08-17T13:05:17.354Z,7.50
2022-08-17T13:07:46.604Z,10.60
2022-08-17T13:10:33.082Z,9.67
2022-08-17T13:13:06.073Z,9.37
2022-08-17T13:15:44.744Z,10.30
2022-08-17T13:18:38.891Z,10.37
2022-08-17T13:21:11.456Z,14.87
2022-08-17T13:23:38.338Z,7.80
2022-08-17T13:26:07.105Z,9.17
2022-08-17T13:28:36.840Z,7.93
2022-08-17T13:31:24.205Z,9.17
2022-08-17T13:33:51.058Z,9.77
2022-08-17T13:36:32.104Z,10.53
2022-08-17T13:39:13.001Z,7.20
2022-08-17T13:41:39.992Z,12.43
2022-08-17T13:44:29.589Z,8.23
2022-08-17T13:46:57.421Z,11.43
2022-08-17T13:49:24.417Z,11.23
2022-08-17T13:52:14.084Z,10.93
2022-08-17T13:54:50.971Z,9.70
2022-08-17T13:57:23.653Z,6.47
2022-08-17T13:59:55.919Z,7.90
2022-08-17T14:02:28.611Z,16.00
2022-08-17T14:04:57.854Z,9.60
2022-08-17T14:07:33.825Z,11.80
2022-08-17T14:10:17.513Z,11.67
2022-08-17T14:12:46.150Z,9.47
2022-08-17T14:15:15.388Z,17.20
2022-08-17T14:17:42.537Z,11.90
2022-08-17T14:20:12.231Z,11.47
2022-08-17T14:22:43.411Z,10.37
2022-08-17T14:25:12.766Z,18.70
2022-08-17T14:27:43.259Z,10.33
2022-08-17T14:30:25.627Z,8.40
2022-08-17T14:32:54.627Z,9.73
2022-08-17T14:35:23.925Z,7.23
2022-08-17T14:37:51.980Z,10.23
2022-08-17T14:40:20.861Z,12.10
2022-08-17T14:42:48.175Z,5.83
2022-08-17T14:45:31.640Z,6.70
2022-08-17T14:48:04.165Z,6.60
2022-08-17T14:50:31.710Z,8.97
2022-08-17T14:52:59.253Z,9.27
2022-08-17T14:55:29.202Z,11.90
2022-08-17T14:57:56.028Z,6.20
2022-08-17T15:00:23.036Z,6.80
2022-08-17T15:02:55.806Z,10.70
2022-08-17T15:05:25.949Z,7.60
2022-08-17T15:07:53.707Z,10.57
2022-08-17T15:10:21.636Z,9.53
2022-08-17T15:12:49.082Z,7.37
2022-08-17T15:15:17.519Z,6.97
2022-08-17T15:17:54.640Z,14.43
2022-08-17T15:20:24.763Z,10.03
2022-08-17T15:22:55.650Z,9.17
2022-08-17T15:25:24.427Z,11.87
2022-08-17T15:27:51.811Z,13.80
2022-08-17T15:30:19.841Z,13.30
2022-08-17T15:32:53.935Z,7.33
2022-08-17T15:35:29.135Z,8.83
2022-08-17T15:38:06.153Z,8.17
2022-08-17T15:40:37.021Z,11.93
2022-08-17T15:43:15.682Z,9.27
2022-08-17T15:45:43.083Z,7.03
2022-08-17T15:48:10.057Z,8.43
2022-08-17T15:50:37.446Z,7.37
2022-08-17T15:53:04.950Z,14.43
2022-08-17T15:55:33.278Z,10.07
2022-08-17T15:58:00.512Z,12.60
2022-08-17T16:00:29.271Z,13.30
2022-08-17T16:03:45.452Z,13.37
2022-08-17T16:05:47.325Z,9.67
2022-08-17T16:08:20.203Z,7.10
2022-08-17T16:10:48.882Z,9.97
2022-08-17T16:13:17.890Z,44.03
2022-08-17T16:15:49.747Z,294.77
2022-08-17T16:18:31.079Z,152.70
2022-08-17T16:21:23.788Z,55.83
2022-08-17T16:24:02.859Z,16.87
2022-08-17T16:26:31.322Z,79.80
2022-08-17T16:29:00.311Z,383.43
2022-08-17T16:31:27.448Z,311.77
2022-08-17T16:34:16.163Z,163.37
2022-08-17T16:36:41.726Z,32.93
2022-08-17T16:39:21.618Z,45.53
2022-08-17T16:41:48.592Z,70.80
2022-08-17T16:44:17.120Z,21.40
2022-08-17T16:46:45.967Z,52.97
2022-08-17T16:49:35.772Z,15.33
2022-08-17T16:52:03.004Z,20.60
2022-08-17T16:54:29.976Z,13.60
2022-08-17T16:56:56.869Z,17.40
2022-08-17T16:59:31.180Z,12.57
2022-08-17T17:02:12.845Z,11.93
2022-08-17T17:05:09.169Z,8.80
2022-08-17T17:07:51.149Z,21.67
2022-08-17T17:10:22.581Z,15.20
2022-08-17T17:13:02.870Z,11.97
2022-08-17T17:15:45.239Z,11.57
2022-08-17T17:18:14.786Z,10.30
2022-08-17T17:20:56.960Z,10.40
2022-08-17T17:23:44.989Z,11.43
2022-08-17T17:26:20.636Z,8.97
2022-08-17T17:29:08.036Z,13.50
2022-08-17T17:31:48.086Z,8.83
2022-08-17T17:34:16.583Z,15.20
2022-08-17T17:36:51.945Z,15.33
2022-08-17T17:39:41.611Z,18.20
2022-08-17T17:42:20.093Z,9.40
2022-08-17T17:44:59.710Z,11.87
2022-08-17T17:47:27.434Z,12.80
2022-08-17T17:49:54.252Z,15.60
2022-08-17T17:52:38.466Z,11.73
2022-08-17T17:55:31.634Z,11.43
2022-08-17T17:58:36.115Z,17.47
2022-08-17T18:01:37.183Z,11.87
2022-08-17T18:04:20.865Z,13.63
2022-08-17T18:07:06.143Z,13.73
2022-08-17T18:10:00.918Z,14.93
2022-08-17T18:12:44.796Z,10.23
2022-08-17T18:15:29.566Z,13.47
2022-08-17T18:18:13.578Z,14.13
2022-08-17T18:20:53.156Z,16.43
2022-08-17T18:23:27.695Z,10.67
2022-08-17T18:25:56.675Z,12.87
2022-08-17T18:28:36.540Z,16.03
2022-08-17T18:31:17.053Z,20.13
2022-08-17T18:33:46.840Z,22.90
2022-08-17T18:36:30.598Z,13.47
2022-08-17T18:39:25.758Z,12.10
2022-08-17T18:41:56.536Z,14.30
2022-08-17T18:44:26.392Z,16.03
2022-08-17T18:47:14.690Z,11.37
2022-08-17T18:49:45.086Z,11.57
2022-08-17T18:52:21.587Z,16.77
2022-08-17T18:55:24.086Z,17.93
2022-08-17T18:57:53.544Z,12.13
2022-08-17T19:00:35.931Z,13.30
2022-08-17T19:03:20.197Z,14.50
2022-08-17T19:05:51.090Z,15.30
2022-08-17T19:08:30.312Z,16.03
2022-08-17T19:11:05.942Z,16.30
2022-08-17T19:13:54.817Z,17.83
2022-08-17T19:16:27.624Z,12.47
2022-08-17T19:19:19.690Z,19.20
2022-08-17T19:21:59.047Z,18.20
2022-08-17T19:24:30.050Z,15.00
2022-08-17T19:27:11.375Z,16.90
2022-08-17T19:29:54.957Z,17.30
2022-08-17T19:32:26.337Z,21.20
2022-08-17T19:34:54.507Z,12.50
2022-08-17T19:37:24.343Z,25.37
2022-08-17T19:39:55.701Z,18.87
2022-08-17T19:42:59.197Z,15.83
2022-08-17T19:45:51.414Z,18.13
2022-08-17T19:48:50.621Z,14.63
2022-08-17T19:51:45.223Z,16.40
2022-08-17T19:54:38.117Z,18.03
2022-08-17T19:57:58.729Z,15.23
2022-08-17T20:00:25.758Z,17.00
2022-08-17T20:03:06.230Z,16.63
2022-08-17T20:06:12.163Z,16.20
2022-08-17T20:09:03.690Z,26.03
2022-08-17T20:11:31.268Z,15.07
2022-08-17T20:14:09.832Z,16.90
2022-08-17T20:16:36.720Z,25.73
2022-08-17T20:19:16.785Z,17.03
2022-08-17T20:21:53.296Z,16.67
2022-08-17T20:24:46.120Z,16.87
2022-08-17T20:27:18.625Z,15.07
2022-08-17T20:30:09.807Z,16.67
2022-08-17T20:33:03.183Z,17.10
2022-08-17T20:35:39.973Z,18.77
2022-08-17T20:38:25.138Z,14.37
2022-08-17T20:40:54.976Z,19.20
2022-08-17T20:43:35.668Z,15.67
2022-08-17T20:46:21.289Z,19.33
2022-08-17T20:48:54.559Z,14.50
2022-08-17T20:52:01.245Z,20.07
2022-08-17T20:54:42.167Z,17.10
2022-08-17T20:57:30.007Z,19.33
2022-08-17T21:00:19.381Z,18.27
2022-08-17T21:02:49.733Z,18.50
2022-08-17T21:05:29.990Z,19.43
2022-08-17T21:08:00.974Z,17.00
2022-08-17T21:10:30.221Z,19.97
2022-08-17T21:13:13.467Z,20.43
2022-08-17T21:15:42.221Z,15.17
2022-08-17T21:18:16.549Z,18.87
2022-08-17T21:21:02.144Z,16.90
2022-08-17T21:23:58.673Z,15.77
2022-08-17T21:26:55.537Z,17.47
2022-08-17T21:29:32.531Z,16.37
2022-08-17T21:32:03.870Z,15.27
2022-08-17T21:34:38.036Z,19.33
2022-08-17T21:37:20.422Z,18.97
2022-08-17T21:39:53.735Z,15.20
2022-08-17T21:42:34.046Z,16.50
2022-08-17T21:45:10.384Z,18.47
2022-08-17T21:47:41.035Z,13.77
2022-08-17T21:50:25.148Z,29.93
2022-08-17T21:52:54.190Z,22.83
2022-08-17T21:55:29.689Z,19.70
2022-08-17T21:58:13.907Z,18.10
2022-08-17T22:00:44.719Z,23.47
2022-08-17T22:03:26.072Z,24.60
2022-08-17T22:05:53.090Z,21.60
2022-08-17T22:08:24.142Z,18.60
2022-08-17T22:11:01.380Z,18.70
2022-08-17T22:13:29.780Z,20.10
2022-08-17T22:16:28.041Z,20.83
2022-08-17T22:18:58.217Z,17.83
2022-08-17T22:21:26.302Z,18.27
2022-08-17T22:24:06.090Z,20.33
2022-08-17T22:26:59.816Z,18.00
2022-08-17T22:29:57.180Z,16.87
2022-08-17T22:32:31.343Z,17.10
2022-08-17T22:35:18.451Z,25.33
2022-08-17T22:37:45.747Z,21.70
2022-08-17T22:40:30.541Z,22.90
2022-08-17T22:42:59.261Z,25.40
2022-08-17T22:45:29.851Z,20.00
2022-08-17T22:47:58.802Z,18.93
2022-08-17T22:50:31.693Z,17.53
2022-08-17T22:53:20.638Z,20.60
2022-08-17T22:56:14.713Z,17.90
2022-08-17T22:59:18.410Z,20.00
2022-08-17T23:02:05.180Z,23.93
2022-08-17T23:04:37.984Z,29.00
2022-08-17T23:07:06.710Z,21.67
2022-08-17T23:09:34.130Z,26.20
2022-08-17T23:12:00.974Z,23.67
2022-08-17T23:14:31.709Z,23.20
2022-08-17T23:16:59.593Z,21.67
2022-08-17T23:19:27.710Z,22.27
2022-08-17T23:21:56.338Z,18.80
2022-08-17T23:24:26.188Z,21.07
2022-08-17T23:26:54.011Z,23.63
2022-08-17T23:29:21.624Z,22.00
2022-08-17T23:31:51.088Z,21.90
2022-08-17T23:34:19.029Z,22.30
2022-08-17T23:36:51.250Z,26.13
2022-08-17T23:39:27.714Z,20.30
2022-08-17T23:41:57.342Z,21.50
2022-08-17T23:44:24.620Z,21.90
2022-08-17T23:46:52.948Z,28.30
2022-08-17T23:49:20.195Z,18.77
2022-08-17T23:51:48.559Z,24.17
2022-08-17T23:54:21.523Z,20.00
2022-08-17T23:56:48.462Z,19.70
2022-08-17T23:59:17.134Z,25.90
